Time;durP1;ratioP1;P1;durP2;ratioP2;P2;SDS_P1;SDS_P2;PMS_P1;PMS_P2;Temp;Humidity;BMP_temperature;BMP_pressure;BME280_temperature;BME280_humidity;BME280_pressure;Samples;Min_cycle;Max_cycle;Signal;HPM_P1;HPM_P2
2022/11/12 00:05:24;;;;;;;9.13;5.50;;;;;;;4.76;57.46;102063.59;10292575;28;20484;-80
2022/11/12 00:11:04;;;;;;;7.97;5.60;;;;;;;4.42;58.60;102076.72;10291465;28;20194;-80
2022/11/12 00:16:45;;;;;;;7.00;5.27;;;;;;;4.44;58.21;102075.38;10291776;28;20566;-80
2022/11/12 00:22:25;;;;;;;6.57;4.97;;;;;;;4.00;60.37;102077.03;10290331;28;20234;-81
2022/11/12 00:28:08;;;;;;;5.70;4.83;;;;;;;4.79;58.04;102077.94;10295335;28;20219;-79
2022/11/12 00:33:49;;;;;;;5.83;4.53;;;;;;;4.11;58.47;102092.88;10305994;28;20787;-81
2022/11/12 00:39:30;;;;;;;5.50;4.47;;;;;;;4.06;58.94;102094.75;10276570;28;20202;-80
2022/11/12 00:45:11;;;;;;;5.33;4.53;;;;;;;4.39;58.04;102096.75;10268104;28;20199;-80
2022/11/12 00:50:58;;;;;;;7.10;4.73;;;;;;;4.22;58.39;102101.44;10301664;28;20627;-80
2022/11/12 00:56:39;;;;;;;6.40;4.47;;;;;;;3.58;60.02;102106.25;10299146;28;20202;-80
2022/11/12 01:02:21;;;;;;;6.83;4.13;;;;;;;3.83;60.50;102101.22;10284319;28;20199;-80
2022/11/12 01:08:01;;;;;;;6.47;3.77;;;;;;;4.03;59.99;102107.25;10291545;28;20223;-80
2022/11/12 01:13:44;;;;;;;5.77;3.87;;;;;;;4.35;58.50;102115.94;10262155;28;20195;-80
2022/11/12 01:19:24;;;;;;;5.67;3.77;;;;;;;3.73;60.57;102112.16;10284106;28;20202;-81
2022/11/12 01:25:05;;;;;;;8.03;4.83;;;;;;;4.07;59.19;102108.41;10272868;28;20230;-80
2022/11/12 01:30:46;;;;;;;13.63;8.17;;;;;;;4.25;58.67;102098.16;10291732;28;20219;-81
2022/11/12 01:36:29;;;;;;;20.77;10.87;;;;;;;3.95;58.78;102104.84;10290275;28;20195;-80
2022/11/12 01:42:10;;;;;;;13.77;7.53;;;;;;;3.85;59.12;102112.16;10277609;28;20257;-81
2022/11/12 01:47:51;;;;;;;12.53;6.80;;;;;;;3.84;59.27;102114.09;10294725;28;20477;-81
2022/11/12 01:53:39;;;;;;;10.67;5.60;;;;;;;4.10;58.98;102113.50;10295601;28;20203;-82
2022/11/12 01:59:24;;;;;;;7.87;4.13;;;;;;;3.58;60.13;102118.25;10268941;28;20195;-81
2022/11/12 02:05:09;;;;;;;5.47;3.60;;;;;;;4.12;58.56;102122.50;10263394;28;20202;-82
2022/11/12 02:10:50;;;;;;;3.23;2.87;;;;;;;4.19;58.53;102107.56;10289370;28;20622;-82
2022/11/12 02:16:36;;;;;;;4.17;2.57;;;;;;;4.20;58.46;102098.09;10276890;28;20195;-81
2022/11/12 02:22:17;;;;;;;3.20;2.30;;;;;;;3.46;60.53;102101.53;10278762;28;20238;-81
2022/11/12 02:27:58;;;;;;;3.70;2.10;;;;;;;3.76;59.18;102094.97;10278868;28;20219;-82
2022/11/12 02:33:39;;;;;;;4.57;3.03;;;;;;;4.11;58.62;102087.31;10280472;28;20195;-81
2022/11/12 02:39:21;;;;;;;4.73;3.20;;;;;;;4.07;58.61;102096.44;10291129;28;20202;-80
2022/11/12 02:45:02;;;;;;;7.17;4.60;;;;;;;3.52;60.61;102096.94;10291838;28;20195;-80
2022/11/12 02:50:42;;;;;;;4.23;2.63;;;;;;;3.45;60.36;102099.84;10262748;28;20231;-80
2022/11/12 02:56:23;;;;;;;5.30;3.93;;;;;;;3.86;59.40;102097.97;10288371;28;20211;-81
2022/11/12 03:02:03;;;;;;;10.70;6.07;;;;;;;3.73;59.42;102093.47;10281546;28;20198;-81
2022/11/12 03:07:44;;;;;;;10.73;6.97;;;;;;;3.87;58.83;102090.44;10280250;28;20246;-81
2022/11/12 03:13:24;;;;;;;7.93;5.70;;;;;;;3.60;60.32;102095.69;10294668;28;20202;-81
2022/11/12 03:19:05;;;;;;;6.33;4.20;;;;;;;3.83;59.57;102101.22;10276779;28;20587;-82
2022/11/12 03:24:46;;;;;;;5.40;3.53;;;;;;;4.03;58.73;102090.50;10280364;28;20234;-81
2022/11/12 03:30:29;;;;;;;3.67;3.07;;;;;;;3.90;58.61;102101.97;10270353;28;20262;-83
2022/11/12 03:36:09;;;;;;;2.70;2.10;;;;;;;3.94;58.45;102092.00;10295896;28;20203;-81
2022/11/12 03:41:50;;;;;;;2.10;1.77;;;;;;;4.03;58.51;102087.72;10267350;28;20199;-82
2022/11/12 03:47:30;;;;;;;3.17;2.00;;;;;;;3.74;59.21;102080.38;10277727;28;20217;-81
2022/11/12 03:53:11;;;;;;;3.97;2.57;;;;;;;4.00;59.29;102068.69;10296620;28;20234;-80
2022/11/12 03:58:52;;;;;;;2.17;1.97;;;;;;;3.98;59.16;102068.06;10276610;28;20238;-81
2022/11/12 04:10:34;;;;;;;3.47;2.00;;;;;;;3.57;61.08;102062.72;10287444;28;20261;-80
2022/11/12 04:22:17;;;;;;;2.63;1.93;;;;;;;3.54;59.79;102052.94;10254827;28;20572;-81
2022/11/12 04:27:58;;;;;;;3.17;1.87;;;;;;;3.60;59.54;102056.66;10270618;28;20254;-81
2022/11/12 04:33:39;;;;;;;3.60;2.00;;;;;;;3.33;60.21;102050.78;10274004;28;20242;-81
2022/11/12 04:39:20;;;;;;;2.93;2.10;;;;;;;3.79;59.66;102044.28;10260674;28;20234;-81
2022/11/12 04:45:03;;;;;;;2.10;1.53;;;;;;;3.43;59.55;102029.53;10267219;28;21014;-80
2022/11/12 04:50:47;;;;;;;2.17;1.90;;;;;;;3.53;60.08;102028.94;10294018;28;20253;-80
2022/11/12 04:56:27;;;;;;;2.30;1.97;;;;;;;3.96;58.77;102039.56;10277914;28;20202;-80
2022/11/12 05:02:08;;;;;;;3.13;1.93;;;;;;;3.31;60.45;102031.53;10295993;28;20240;-81
2022/11/12 05:07:48;;;;;;;3.53;2.13;;;;;;;3.57;60.34;102027.31;10284352;28;20253;-82
2022/11/12 05:13:29;;;;;;;1.87;1.70;;;;;;;3.22;60.32;102021.84;10277645;28;20206;-81
2022/11/12 05:19:09;;;;;;;2.47;2.07;;;;;;;3.39;60.88;102024.72;10313387;28;20194;-82
2022/11/12 05:24:50;;;;;;;2.83;2.10;;;;;;;3.65;59.71;102021.38;10285952;28;20231;-80
2022/11/12 05:30:30;;;;;;;3.07;1.80;;;;;;;3.26;60.52;102020.28;10274111;28;20223;-80
2022/11/12 05:36:11;;;;;;;2.80;1.90;;;;;;;3.44;59.66;102019.25;10280813;28;20246;-80
2022/11/12 05:41:52;;;;;;;3.97;2.27;;;;;;;3.41;59.63;102017.81;10287827;28;20226;-81
2022/11/12 05:47:32;;;;;;;2.30;2.10;;;;;;;3.24;59.94;102016.88;10273568;28;20246;-80
2022/11/12 05:53:13;;;;;;;3.93;2.27;;;;;;;3.00;61.04;102010.50;10291271;28;20218;-81
2022/11/12 05:58:53;;;;;;;2.43;2.23;;;;;;;3.12;60.46;102015.22;10288085;28;20190;-80
2022/11/12 06:04:34;;;;;;;5.13;2.50;;;;;;;3.15;60.45;102014.72;10266524;28;20199;-80
2022/11/12 06:10:14;;;;;;;3.33;2.27;;;;;;;2.77;60.70;102030.03;10270231;28;20266;-80
2022/11/12 06:15:55;;;;;;;4.23;2.13;;;;;;;2.99;60.61;102016.31;10292704;28;20199;-81
2022/11/12 06:21:36;;;;;;;2.83;2.53;;;;;;;3.07;60.11;102021.50;10277885;28;20250;-81
2022/11/12 06:27:16;;;;;;;4.27;2.97;;;;;;;2.67;61.08;102030.59;10286130;28;20210;-80
2022/11/12 06:32:57;;;;;;;5.30;2.80;;;;;;;2.64;61.38;102036.69;10278930;28;20234;-79
2022/11/12 06:38:39;;;;;;;12.17;5.20;;;;;;;3.67;58.74;102033.13;10281689;28;20190;-81
2022/11/12 06:44:19;;;;;;;5.23;3.30;;;;;;;3.67;58.70;102035.94;10288305;28;20618;-79
2022/11/12 06:50:01;;;;;;;6.67;3.47;;;;;;;3.71;59.26;102036.25;10277203;28;20639;-80
2022/11/12 06:55:42;;;;;;;4.53;2.90;;;;;;;3.92;58.86;102027.25;10308489;28;20195;-81
2022/11/12 07:01:23;;;;;;;5.70;2.37;;;;;;;3.75;59.05;102023.50;10309024;28;20202;-81
2022/11/12 07:07:03;;;;;;;3.77;2.43;;;;;;;4.06;58.17;102034.22;10314314;28;20198;-81
2022/11/12 07:12:45;;;;;;;2.53;2.13;;;;;;;3.76;58.79;102045.63;10273558;28;20206;-81
2022/11/12 07:18:26;;;;;;;3.00;2.43;;;;;;;3.64;59.61;102055.09;10295202;28;20194;-80
2022/11/12 07:24:07;;;;;;;4.40;1.87;;;;;;;3.51;59.95;102064.56;10294046;28;20234;-81
2022/11/12 07:29:48;;;;;;;5.77;3.00;;;;;;;3.29;61.08;102055.19;10284857;28;20214;-81
2022/11/12 07:35:29;;;;;;;4.53;2.87;;;;;;;3.57;59.85;102060.78;10282720;28;20206;-82
2022/11/12 07:41:15;;;;;;;4.80;3.20;;;;;;;3.57;60.20;102058.00;10318277;28;20591;-82
2022/11/12 07:46:56;;;;;;;5.13;3.27;;;;;;;3.62;61.05;102060.06;10295214;28;20198;-82
2022/11/12 07:52:36;;;;;;;4.20;2.37;;;;;;;4.06;59.43;102064.91;10323754;28;20209;-82
2022/11/12 07:58:17;;;;;;;5.53;3.57;;;;;;;3.89;59.70;102063.16;10261423;28;20192;-80
2022/11/12 08:03:58;;;;;;;7.13;5.10;;;;;;;4.06;59.30;102073.28;10300642;28;20195;-81
2022/11/12 08:09:39;;;;;;;7.43;5.27;;;;;;;3.96;60.25;102073.06;10301772;28;20257;-80
2022/11/12 08:15:20;;;;;;;9.63;5.80;;;;;;;4.68;58.30;102064.91;10306327;28;20202;-81
2022/11/12 08:21:01;;;;;;;7.67;4.50;;;;;;;4.78;58.21;102064.22;10319030;28;20198;-81
2022/11/12 08:26:41;;;;;;;5.97;4.30;;;;;;;5.43;56.64;102064.38;10309759;28;20795;-81
2022/11/12 08:32:22;;;;;;;6.27;4.27;;;;;;;6.11;55.18;102060.19;10291627;28;20214;-80
2022/11/12 08:38:05;;;;;;;7.60;4.70;;;;;;;6.42;54.17;102066.09;10331188;28;20201;-81
2022/11/12 08:43:46;;;;;;;5.03;3.40;;;;;;;6.78;53.75;102056.94;10306416;28;20209;-80
2022/11/12 08:49:28;;;;;;;9.83;4.57;;;;;;;7.05;52.26;102059.66;10267642;28;20251;-81
2022/11/12 08:55:08;;;;;;;6.97;4.23;;;;;;;6.96;53.33;102059.28;10272515;28;20211;-81
2022/11/12 09:00:49;;;;;;;6.90;3.77;;;;;;;7.39;51.85;102046.09;10290567;28;20191;-81
2022/11/12 09:06:30;;;;;;;7.80;3.80;;;;;;;7.26;51.56;102055.84;10270627;28;20608;-81
2022/11/12 09:12:17;;;;;;;9.50;4.00;;;;;;;7.26;54.82;102055.00;10285445;28;20214;-82
2022/11/12 09:18:02;;;;;;;6.50;3.57;;;;;;;7.40;54.70;102044.16;10299509;28;20201;-81
2022/11/12 09:23:43;;;;;;;5.27;3.70;;;;;;;7.38;54.73;102052.81;10321604;28;20225;-81
2022/11/12 09:29:23;;;;;;;7.60;4.30;;;;;;;7.49;54.15;102048.94;10323108;28;20219;-83
2022/11/12 09:35:04;;;;;;;5.53;4.70;;;;;;;7.59;53.94;102054.63;10296821;28;20187;-80
2022/11/12 09:40:51;;;;;;;6.30;4.17;;;;;;;7.57;54.01;102059.72;10309346;28;20197;-81
2022/11/12 09:46:54;;;;;;;6.67;3.67;;;;;;;7.64;54.46;102053.81;10313683;28;20206;-81
2022/11/12 09:52:36;;;;;;;5.77;4.20;;;;;;;7.68;53.96;102060.59;10289684;28;20500;-80
2022/11/12 09:58:17;;;;;;;7.60;4.63;;;;;;;7.81;52.24;102059.25;10317466;28;20206;-81
2022/11/12 10:04:22;;;;;;;5.57;4.27;;;;;;;7.87;51.98;102058.13;10266336;28;20211;-80
2022/11/12 10:10:10;;;;;;;7.93;4.60;;;;;;;8.75;50.80;102053.22;10309420;28;20222;-80
2022/11/12 10:16:49;;;;;;;7.23;4.30;;;;;;;9.06;48.51;102054.91;10330507;28;20209;-81
2022/11/12 10:22:38;;;;;;;5.03;3.60;;;;;;;9.05;49.38;102041.97;10263895;28;20223;-81
2022/11/12 10:28:25;;;;;;;4.73;3.70;;;;;;;9.21;49.69;102039.13;10313216;28;20606;-80
2022/11/12 10:34:22;;;;;;;4.40;2.97;;;;;;;9.02;48.46;102041.69;10299958;28;20198;-81
2022/11/12 10:40:25;;;;;;;5.90;2.70;;;;;;;8.97;48.64;102045.38;10312004;28;20195;-80
2022/11/12 10:46:19;;;;;;;4.97;2.80;;;;;;;9.55;47.43;102039.28;10296878;28;20203;-81
2022/11/12 10:51:59;;;;;;;4.00;3.00;;;;;;;9.87;47.79;102036.09;10275520;28;20206;-81
2022/11/12 10:57:40;;;;;;;4.57;3.00;;;;;;;10.09;46.60;102039.34;10298655;28;20198;-80
2022/11/12 11:03:46;;;;;;;5.88;4.10;;;;;;;10.23;46.13;102033.91;10273542;28;20513;-81
2022/11/12 11:09:26;;;;;;;8.90;4.05;;;;;;;10.53;46.39;102023.25;10285652;28;20222;-79
2022/11/12 11:15:20;;;;;;;9.68;4.30;;;;;;;10.38;45.72;102026.19;10281640;28;20202;-82
2022/11/12 11:21:20;;;;;;;12.52;4.43;;;;;;;11.20;44.63;102010.22;10298077;28;20194;-81
2022/11/12 11:27:01;;;;;;;18.30;4.60;;;;;;;10.92;45.62;102002.63;10273790;28;20285;-79
2022/11/12 11:33:03;;;;;;;6.57;4.07;;;;;;;11.21;44.26;102003.41;10297356;28;20272;-81
2022/11/12 11:39:13;;;;;;;13.47;3.70;;;;;;;11.26;44.90;102000.53;10312400;28;20206;-80
2022/11/12 11:45:23;;;;;;;10.30;3.30;;;;;;;11.16;44.85;101989.38;10299150;28;20222;-80
2022/11/12 11:51:14;;;;;;;8.70;3.87;;;;;;;11.59;43.13;101978.16;10287435;28;20276;-81
2022/11/12 11:56:58;;;;;;;5.82;3.92;;;;;;;11.47;42.88;101974.91;10281438;28;20238;-81
2022/11/12 12:03:06;;;;;;;10.37;4.80;;;;;;;11.59;43.17;101976.19;10270671;28;20229;-81
2022/11/12 12:09:03;;;;;;;8.02;4.07;;;;;;;11.59;42.78;101972.53;10294085;28;20329;-82
2022/11/12 12:15:18;;;;;;;6.70;5.07;;;;;;;11.61;42.86;101959.75;10308907;28;20232;-81
2022/11/12 12:21:12;;;;;;;7.77;5.47;;;;;;;11.83;41.65;101962.00;10299841;28;20238;-82
2022/11/12 12:26:56;;;;;;;8.57;6.00;;;;;;;11.70;42.59;101959.09;10304635;28;20198;-81
2022/11/12 12:33:05;;;;;;;10.50;6.57;;;;;;;11.93;41.86;101956.19;10302795;28;20256;-82
2022/11/12 12:38:51;;;;;;;9.93;6.57;;;;;;;12.13;41.98;101949.38;10294688;28;20270;-81
2022/11/12 12:50:40;;;;;;;8.20;5.75;;;;;;;12.14;41.64;101939.75;10272821;28;20245;-81
2022/11/12 12:56:21;;;;;;;10.00;6.40;;;;;;;11.93;42.00;101933.59;10284150;28;20229;-81
2022/11/12 13:02:02;;;;;;;55.60;38.05;;;;;;;11.17;43.93;101936.59;10281682;28;20285;-74
2022/11/12 13:07:45;;;;;;;11.10;6.97;;;;;;;11.35;43.41;101937.75;10276011;28;20296;-78
2022/11/12 13:13:36;;;;;;;8.68;5.22;;;;;;;11.99;41.66;101935.19;10254759;28;20531;-79
2022/11/12 13:19:26;;;;;;;8.63;5.68;;;;;;;12.24;41.53;101933.94;10268106;28;20466;-84
2022/11/12 13:25:06;;;;;;;7.32;5.32;;;;;;;12.12;41.13;101941.22;10251758;28;20258;-88
2022/11/12 13:30:47;;;;;;;7.25;5.07;;;;;;;11.83;42.33;101933.75;10295250;28;20246;-79
2022/11/12 13:36:28;;;;;;;7.77;4.93;;;;;;;11.85;42.88;101942.78;10249704;28;20270;-80
2022/11/12 13:48:40;;;;;;;7.70;5.25;;;;;;;12.17;43.41;101932.66;10256824;28;20195;-78
2022/11/12 13:54:32;;;;;;;9.87;6.40;;;;;;;11.85;43.14;101936.28;10234754;28;20231;-78
2022/11/12 14:00:15;;;;;;;11.23;6.25;;;;;;;11.60;44.71;101937.50;10239610;28;20234;-79
2022/11/12 14:06:01;;;;;;;9.55;5.95;;;;;;;11.49;45.48;101939.59;10253645;28;20281;-78
2022/11/12 14:12:13;;;;;;;10.65;6.03;;;;;;;11.61;45.24;101933.50;10267611;28;20250;-78
2022/11/12 14:18:45;;;;;;;11.85;6.18;;;;;;;11.71;45.50;101930.53;10244521;28;20298;-78
2022/11/12 14:24:25;;;;;;;9.70;5.10;;;;;;;11.30;47.58;101929.38;10286941;28;20314;-86
2022/11/12 14:30:06;;;;;;;7.07;5.28;;;;;;;11.47;45.69;101918.44;10290634;28;20242;-78
2022/11/12 14:35:48;;;;;;;7.53;4.97;;;;;;;11.56;44.81;101911.84;10285716;28;20477;-78
2022/11/12 14:43:47;;;;;;;13.70;7.03;;;;;;;11.47;46.41;101912.78;10553504;27;20275;-81
2022/11/12 14:49:41;;;;;;;9.63;7.13;;;;;;;11.55;46.37;101909.31;10559568;28;20538;-89
2022/11/12 14:55:29;;;;;;;8.75;6.85;;;;;;;11.27;47.28;101902.59;10581138;27;20182;-89
2022/11/12 15:02:19;;;;;;;16.10;8.52;;;;;;;10.72;48.95;101906.91;10549154;27;20539;-88
2022/11/12 15:08:39;;;;;;;154.53;110.43;;;;;;;10.53;49.45;101893.56;10530468;27;20659;-81
2022/11/12 15:14:23;;;;;;;10.65;6.95;;;;;;;10.54;49.34;101895.25;10520672;28;20342;-79
2022/11/12 15:20:10;;;;;;;11.70;6.03;;;;;;;10.48;50.22;101890.78;10518207;28;20218;-82
2022/11/12 15:31:27;;;;;;;12.43;8.35;;;;;;;9.69;53.78;101889.19;10542965;27;20513;-79
2022/11/12 15:37:17;;;;;;;25.98;14.40;;;;;;;9.45;54.16;101882.56;10557083;28;20524;-86
2022/11/12 15:42:59;;;;;;;9.45;4.63;;;;;;;9.74;52.14;101879.88;10558394;28;20543;-83
2022/11/12 15:48:40;;;;;;;15.37;11.20;;;;;;;9.54;52.85;101879.97;10556060;28;20252;-86
2022/11/12 15:54:21;;;;;;;19.52;9.13;;;;;;;9.64;52.20;101879.97;10551990;28;20512;-84
2022/11/12 16:00:12;;;;;;;13.30;7.82;;;;;;;9.80;51.56;101882.34;10549082;28;21881;-86
2022/11/12 16:05:53;;;;;;;19.83;9.23;;;;;;;9.88;51.68;101880.06;10554799;28;20879;-81
2022/11/12 16:11:37;;;;;;;13.33;5.63;;;;;;;9.40;53.70;101880.63;10561487;28;20681;-90
2022/11/12 16:17:17;;;;;;;23.27;14.27;;;;;;;9.24;54.17;101873.41;10549198;28;20221;-84
2022/11/12 16:22:58;;;;;;;62.27;32.20;;;;;;;9.29;54.17;101878.16;10549104;28;20246;-82
2022/11/12 16:28:40;;;;;;;19.57;10.10;;;;;;;8.92;55.46;101881.41;10521238;28;20250;-86
2022/11/12 16:34:23;;;;;;;9.50;5.67;;;;;;;8.48;57.24;101875.63;10534797;28;20202;-80
2022/11/12 16:40:05;;;;;;;10.43;5.30;;;;;;;8.34;57.71;101873.41;10527844;28;20223;-82
2022/11/12 16:45:46;;;;;;;10.67;6.37;;;;;;;8.56;56.81;101870.25;10499340;28;20230;-87
2022/11/12 16:51:28;;;;;;;8.73;5.83;;;;;;;8.58;56.66;101867.16;10497943;28;20247;-84
2022/11/12 16:57:11;;;;;;;12.73;7.10;;;;;;;8.14;57.75;101864.97;10501052;28;20222;-79
2022/11/12 17:02:52;;;;;;;14.17;7.83;;;;;;;7.43;59.96;101878.94;10507812;28;20238;-78
2022/11/12 17:08:33;;;;;;;22.20;16.37;;;;;;;7.95;58.70;101863.88;10520906;28;20242;-79
2022/11/12 17:14:13;;;;;;;22.67;14.97;;;;;;;7.79;58.88;101865.84;10500572;28;20513;-81
2022/11/12 17:19:54;;;;;;;16.47;10.60;;;;;;;7.73;58.94;101850.94;10500442;28;20278;-85
2022/11/12 17:25:34;;;;;;;14.67;8.83;;;;;;;7.70;58.55;101854.34;10507439;28;20251;-86
2022/11/12 17:31:18;;;;;;;12.63;8.13;;;;;;;7.67;58.86;101849.25;10513157;28;20259;-79
2022/11/12 17:36:59;;;;;;;14.03;8.23;;;;;;;7.53;59.38;101862.13;10510130;28;20230;-80
2022/11/12 17:42:40;;;;;;;16.67;9.40;;;;;;;7.31;60.33;101864.31;10505757;28;20596;-81
2022/11/12 17:48:22;;;;;;;11.68;7.30;;;;;;;6.91;61.27;101860.25;10507806;28;20251;-82
2022/11/12 17:54:03;;;;;;;16.87;10.20;;;;;;;7.06;61.10;101856.66;10518005;28;20225;-81
2022/11/12 17:59:44;;;;;;;20.53;11.03;;;;;;;7.41;59.13;101850.31;10504819;28;20222;-79
2022/11/12 18:05:25;;;;;;;19.00;12.87;;;;;;;7.40;59.67;101845.81;10498168;28;20231;-84
2022/11/12 18:11:07;;;;;;;23.47;13.27;;;;;;;7.51;59.42;101847.53;10492922;28;20309;-80
2022/11/12 18:16:48;;;;;;;13.97;8.67;;;;;;;7.33;59.81;101842.44;10503169;28;20809;-81
2022/11/12 18:22:30;;;;;;;19.07;9.57;;;;;;;7.19;60.57;101839.31;10508520;28;20254;-87
2022/11/12 18:28:11;;;;;;;17.13;10.47;;;;;;;7.37;60.40;101835.16;10502060;28;20320;-85
2022/11/12 18:33:53;;;;;;;25.80;14.73;;;;;;;7.84;59.31;101822.91;10514260;28;20226;-84
2022/11/12 18:39:34;;;;;;;18.33;10.13;;;;;;;7.60;60.65;101817.81;10510303;28;20221;-81
2022/11/12 18:45:15;;;;;;;25.37;13.63;;;;;;;7.92;59.30;101819.50;10497061;28;20219;-83
2022/11/12 18:50:59;;;;;;;36.97;20.27;;;;;;;7.91;59.39;101806.59;10492427;28;20355;-83
2022/11/12 18:56:41;;;;;;;20.30;11.60;;;;;;;7.73;60.09;101806.03;10491564;28;20234;-85
2022/11/12 19:02:22;;;;;;;19.53;12.00;;;;;;;7.78;59.71;101808.00;10499187;28;20323;-79
2022/11/12 19:08:02;;;;;;;16.23;10.57;;;;;;;7.65;60.27;101798.19;10505554;28;20297;-85
2022/11/12 19:13:44;;;;;;;12.13;9.07;;;;;;;7.13;61.75;101795.56;10495486;28;20413;-82
2022/11/12 19:19:25;;;;;;;23.23;14.03;;;;;;;7.68;60.17;101797.63;10508485;28;20231;-82
2022/11/12 19:25:05;;;;;;;17.47;11.87;;;;;;;7.46;61.09;101793.34;10523968;28;20246;-78
2022/11/12 19:30:46;;;;;;;17.50;12.30;;;;;;;7.50;60.98;101795.34;10515773;28;20257;-81
2022/11/12 19:36:28;;;;;;;20.83;12.77;;;;;;;7.39;61.47;101788.03;10496118;28;20285;-85
2022/11/12 19:42:08;;;;;;;20.17;11.43;;;;;;;6.79;63.42;101798.00;10520107;28;20267;-78
2022/11/12 19:47:50;;;;;;;16.83;12.07;;;;;;;7.20;61.88;101798.09;10500256;28;20247;-83
2022/11/12 19:53:32;;;;;;;20.57;11.57;;;;;;;7.19;62.40;101794.44;10512992;28;20576;-79
2022/11/12 19:59:13;;;;;;;19.83;12.17;;;;;;;7.15;62.64;101795.28;10505297;28;20219;-83
2022/11/12 20:04:54;;;;;;;17.27;12.33;;;;;;;7.17;62.45;101798.66;10519434;28;20253;-83
2022/11/12 20:10:35;;;;;;;14.47;10.53;;;;;;;6.81;63.63;101798.53;10507875;28;20869;-84
2022/11/12 20:16:16;;;;;;;11.70;8.23;;;;;;;7.22;61.79;101799.50;10504662;28;20230;-82
2022/11/12 20:21:56;;;;;;;13.10;9.40;;;;;;;6.76;63.40;101795.75;10515216;28;20237;-80
2022/11/12 20:27:37;;;;;;;13.83;10.10;;;;;;;6.92;62.83;101789.06;10508725;28;20250;-81
2022/11/12 20:33:17;;;;;;;16.30;10.97;;;;;;;6.75;63.41;101782.00;10498281;28;20226;-84
2022/11/12 20:38:59;;;;;;;15.87;10.23;;;;;;;6.54;63.82;101783.88;10535646;28;20255;-84
2022/11/12 20:44:40;;;;;;;20.43;12.60;;;;;;;6.36;64.90;101778.72;10516228;28;20246;-84
2022/11/12 20:50:21;;;;;;;27.87;16.60;;;;;;;6.59;64.16;101776.31;10521792;28;20247;-80
2022/11/12 20:56:16;;;;;;;49.37;26.80;;;;;;;6.71;62.76;101781.69;10525648;28;20222;-85
2022/11/12 21:01:57;;;;;;;36.30;21.43;;;;;;;6.35;63.80;101779.81;10518840;28;20284;-86
2022/11/12 21:07:38;;;;;;;30.67;19.20;;;;;;;6.57;63.26;101766.50;10525537;28;20202;-85
2022/11/12 21:13:19;;;;;;;41.57;25.10;;;;;;;6.36;63.52;101775.91;10523601;28;20230;-85
2022/11/12 21:19:00;;;;;;;35.20;22.50;;;;;;;6.99;59.14;101755.16;10516571;28;20667;-85
2022/11/12 21:24:41;;;;;;;44.90;24.93;;;;;;;7.04;58.57;101746.78;10520605;28;20222;-84
2022/11/12 21:30:21;;;;;;;24.63;15.97;;;;;;;6.98;57.65;101747.88;10521499;28;20250;-80
2022/11/12 21:36:04;;;;;;;31.17;14.73;;;;;;;7.13;56.71;101739.50;10519089;28;20516;-81
2022/11/12 21:41:44;;;;;;;15.23;10.63;;;;;;;6.66;57.01;101739.66;10502651;28;20286;-82
2022/11/12 21:47:25;;;;;;;15.77;11.13;;;;;;;6.76;56.81;101742.50;10524362;28;20226;-84
2022/11/12 21:53:06;;;;;;;13.47;9.97;;;;;;;6.57;57.62;101741.28;10525702;28;20230;-84
2022/11/12 21:58:47;;;;;;;18.53;11.70;;;;;;;6.85;56.25;101732.41;10511673;28;20226;-82
2022/11/12 22:04:27;;;;;;;16.60;10.53;;;;;;;6.25;58.45;101733.88;10505304;28;20225;-82
2022/11/12 22:10:08;;;;;;;19.73;13.23;;;;;;;6.60;58.07;101723.94;10510185;28;20257;-81
2022/11/12 22:15:49;;;;;;;19.00;13.57;;;;;;;6.57;58.37;101730.09;10517113;28;20254;-82
2022/11/12 22:21:31;;;;;;;20.07;12.67;;;;;;;5.94;60.73;101732.00;10516929;28;20242;-83
2022/11/12 22:27:12;;;;;;;16.10;12.00;;;;;;;5.98;60.58;101733.16;10527620;28;20234;-82
2022/11/12 22:32:53;;;;;;;17.87;13.57;;;;;;;6.09;60.29;101720.91;10525221;28;20246;-82
2022/11/12 22:38:35;;;;;;;24.30;15.00;;;;;;;5.99;60.30;101723.63;10514899;28;20218;-80
2022/11/12 22:44:17;;;;;;;27.30;17.07;;;;;;;5.47;61.80;101718.81;10520457;28;20218;-81
2022/11/12 22:49:58;;;;;;;23.27;15.90;;;;;;;5.92;60.54;101717.44;10523945;28;20239;-80
2022/11/12 22:55:38;;;;;;;18.53;13.23;;;;;;;5.76;60.42;101712.88;10520548;28;20689;-81
2022/11/12 23:01:24;;;;;;;16.77;10.57;;;;;;;5.56;61.13;101708.81;10508728;28;20218;-81
2022/11/12 23:07:05;;;;;;;16.07;12.03;;;;;;;5.79;60.22;101703.91;10513447;28;20203;-82
2022/11/12 23:12:45;;;;;;;17.93;11.37;;;;;;;5.32;62.08;101706.66;10529779;28;20218;-83
2022/11/12 23:18:26;;;;;;;15.43;9.67;;;;;;;5.63;60.09;101699.34;10528357;28;20195;-83
2022/11/12 23:24:07;;;;;;;12.23;9.07;;;;;;;5.86;57.88;101690.53;10525629;28;20218;-83
2022/11/12 23:29:47;;;;;;;8.27;6.73;;;;;;;6.15;55.06;101683.41;10513603;28;20234;-82
2022/11/12 23:35:28;;;;;;;11.37;7.50;;;;;;;6.25;55.84;101677.88;10535842;28;20195;-82
2022/11/12 23:41:16;;;;;;;10.63;6.80;;;;;;;6.35;54.80;101676.22;10511136;28;20191;-82
2022/11/12 23:46:56;;;;;;;9.50;6.93;;;;;;;6.58;53.98;101670.16;10510754;28;20195;-82
2022/11/12 23:52:37;;;;;;;7.17;6.23;;;;;;;6.14;54.34;101672.50;10514751;28;20218;-82
2022/11/12 23:58:17;;;;;;;7.70;6.63;;;;;;;6.44;54.01;101680.19;10527307;28;20199;-82
